createdAt,value
2023-09-12T00:00:01.356Z,98641.88
2023-09-12T00:05:04.151Z,98732.03
2023-09-12T00:10:07.091Z,98626.59
2023-09-12T00:15:10.116Z,98708.03
2023-09-12T00:20:12.527Z,98640.72
2023-09-12T00:25:14.846Z,98649.19
2023-09-12T00:30:17.319Z,98553.00
2023-09-12T00:35:19.631Z,98608.63
2023-09-12T00:40:21.951Z,98735.50
2023-09-12T00:45:24.303Z,98680.69
2023-09-12T00:50:27.808Z,98576.91
2023-09-12T00:55:33.763Z,98684.31
2023-09-12T01:00:36.273Z,98710.78
2023-09-12T01:05:39.208Z,98731.72
2023-09-12T01:10:47.163Z,98731.25
2023-09-12T01:15:49.382Z,98692.59
2023-09-12T01:21:30.050Z,98717.81
2023-09-12T01:27:22.987Z,98690.69
2023-09-12T01:32:25.443Z,98673.50
2023-09-12T01:37:28.234Z,98653.16
2023-09-12T01:42:38.636Z,98646.66
2023-09-12T01:47:43.061Z,98699.53
2023-09-12T01:52:46.344Z,98690.91
2023-09-12T01:57:48.926Z,98730.13
2023-09-12T02:02:51.934Z,98587.88
2023-09-12T02:07:54.263Z,98686.72
2023-09-12T02:12:56.610Z,98640.47
2023-09-12T02:17:58.824Z,98679.28
2023-09-12T02:23:01.036Z,98625.22
2023-09-12T02:28:03.521Z,98724.63
2023-09-12T02:33:06.019Z,98727.00
2023-09-12T02:38:09.222Z,98659.44
2023-09-12T02:43:11.581Z,98563.53
2023-09-12T02:48:13.918Z,98594.41
2023-09-12T02:53:16.193Z,98715.25
2023-09-12T02:58:18.549Z,98579.75
2023-09-12T03:03:21.190Z,98679.09
2023-09-12T03:08:23.622Z,98618.31
2023-09-12T03:13:27.410Z,98605.03
2023-09-12T03:18:30.172Z,98683.72
2023-09-12T03:23:33.255Z,98568.28
2023-09-12T03:28:36.238Z,98652.16
2023-09-12T03:33:39.742Z,98651.66
2023-09-12T03:38:42.255Z,98688.19
2023-09-12T03:43:44.811Z,98605.56
2023-09-12T03:48:47.440Z,98534.31
2023-09-12T03:53:51.192Z,98651.44
2023-09-12T03:58:55.073Z,98531.22
2023-09-12T04:03:58.992Z,98613.00
2023-09-12T04:09:02.755Z,98618.88
2023-09-12T04:14:05.089Z,98598.19
2023-09-12T04:19:07.695Z,98643.91
2023-09-12T04:24:10.427Z,98584.94
2023-09-12T04:29:12.897Z,98603.81
2023-09-12T04:34:15.291Z,98580.03
2023-09-12T04:39:17.598Z,98648.94
2023-09-12T04:44:20.098Z,98573.66
2023-09-12T04:49:22.897Z,98573.09
2023-09-12T04:54:25.238Z,98661.44
2023-09-12T04:59:27.580Z,98553.78
2023-09-12T05:04:30.004Z,98620.56
2023-09-12T05:09:32.502Z,98658.88
2023-09-12T05:14:35.037Z,98623.59
2023-09-12T05:19:37.438Z,98612.41
2023-09-12T05:24:39.753Z,98598.34
2023-09-12T05:29:42.140Z,98606.94
2023-09-12T05:34:46.302Z,98677.84
2023-09-12T05:39:48.952Z,98683.22
2023-09-12T05:44:54.528Z,98757.41
2023-09-12T05:49:57.674Z,98631.19
2023-09-12T05:54:59.999Z,98756.03
2023-09-12T06:00:04.892Z,98733.63
2023-09-12T06:05:14.854Z,98701.84
2023-09-12T06:10:17.231Z,98764.91
2023-09-12T06:15:19.582Z,98730.91
2023-09-12T06:20:23.024Z,98716.28
2023-09-12T06:25:26.091Z,98718.94
2023-09-12T06:30:28.549Z,98745.88
2023-09-12T06:35:30.778Z,98650.56
2023-09-12T06:40:33.020Z,98764.09
2023-09-12T06:45:37.935Z,98717.47
2023-09-12T06:50:40.290Z,98668.72
2023-09-12T06:55:42.568Z,98670.41
2023-09-12T07:00:45.056Z,98669.75
2023-09-12T07:05:47.408Z,98657.81
2023-09-12T07:10:49.701Z,98646.81
2023-09-12T07:15:52.944Z,98730.38
2023-09-12T07:21:05.869Z,98680.09
2023-09-12T07:26:17.389Z,98750.81
2023-09-12T07:31:19.768Z,98712.44
2023-09-12T07:36:22.157Z,98748.63
2023-09-12T07:41:24.404Z,98787.84
2023-09-12T07:46:26.761Z,98816.28
2023-09-12T07:51:29.075Z,98836.88
2023-09-12T07:56:31.393Z,98842.56
2023-09-12T08:01:33.693Z,98830.41
2023-09-12T08:06:47.702Z,98818.28
2023-09-12T08:11:54.274Z,98799.94
2023-09-12T08:16:56.594Z,98793.66
2023-09-12T08:21:58.853Z,98865.84
2023-09-12T08:27:01.865Z,98858.72
2023-09-12T08:32:04.718Z,98870.91
2023-09-12T08:37:07.158Z,98886.94
2023-09-12T08:42:15.328Z,98841.59
2023-09-12T08:47:21.132Z,98878.41
2023-09-12T08:52:23.759Z,98897.28
2023-09-12T08:57:26.772Z,98938.00
2023-09-12T09:02:29.528Z,98895.50
2023-09-12T09:07:40.019Z,98866.94
2023-09-12T09:12:44.660Z,98921.16
2023-09-12T09:17:48.116Z,98848.38
2023-09-12T09:23:16.936Z,98866.34
2023-09-12T09:28:21.926Z,98803.72
2023-09-12T09:33:25.249Z,98855.81
2023-09-12T09:38:27.602Z,98810.84
2023-09-12T09:43:33.284Z,98839.28
2023-09-12T09:48:37.062Z,98882.13
2023-09-12T09:53:42.092Z,98825.44
2023-09-12T09:58:51.352Z,98875.13
2023-09-12T10:03:54.838Z,98796.44
2023-09-12T10:09:00.227Z,98861.22
2023-09-12T10:14:05.694Z,98809.78
2023-09-12T10:19:20.817Z,98861.16
2023-09-12T10:24:24.793Z,98820.34
2023-09-12T10:29:27.152Z,98787.22
2023-09-12T10:34:31.800Z,98836.38
2023-09-12T10:39:35.986Z,98824.84
2023-09-12T10:44:38.546Z,98832.69
2023-09-12T10:49:41.115Z,98813.34
2023-09-12T11:00:05.404Z,98845.91
2023-09-12T11:05:29.090Z,98794.34
2023-09-12T11:10:33.343Z,98855.53
2023-09-12T11:15:36.027Z,98830.69
2023-09-12T11:21:04.751Z,98817.84
2023-09-12T11:26:09.275Z,98836.06
2023-09-12T11:31:12.022Z,98803.13
2023-09-12T11:36:16.344Z,98838.59
2023-09-12T11:41:41.076Z,98830.53
2023-09-12T11:46:44.460Z,98798.31
2023-09-12T11:51:56.541Z,98870.66
2023-09-12T11:57:00.898Z,98713.78
2023-09-12T12:02:09.151Z,98754.66
2023-09-12T12:07:12.419Z,98743.91
2023-09-12T12:12:16.260Z,98802.31
2023-09-12T12:17:18.752Z,98798.31
2023-09-12T12:22:21.180Z,98731.41
2023-09-12T12:27:24.123Z,98744.31
2023-09-12T12:32:26.868Z,98733.88
2023-09-12T12:37:32.716Z,98683.13
2023-09-12T12:42:50.508Z,98657.84
2023-09-12T12:48:01.936Z,98674.78
2023-09-12T12:53:04.495Z,98720.16
2023-09-12T12:58:06.831Z,98654.22
2023-09-12T13:03:09.228Z,98663.81
2023-09-12T13:08:11.520Z,98712.84
2023-09-12T13:13:13.970Z,98689.34
2023-09-12T13:18:16.295Z,98714.28
2023-09-12T13:23:18.969Z,98682.88
2023-09-12T13:28:21.442Z,98638.41
2023-09-12T13:33:23.954Z,98645.53
2023-09-12T13:38:26.643Z,98665.56
2023-09-12T13:43:29.678Z,98623.28
2023-09-12T13:48:32.103Z,98631.09
2023-09-12T13:53:34.846Z,98630.28
2023-09-12T13:58:42.312Z,98639.97
2023-09-12T14:03:51.078Z,98601.69
2023-09-12T14:08:55.125Z,98668.47
2023-09-12T14:14:12.288Z,98644.56
2023-09-12T14:19:17.664Z,98615.44
2023-09-12T14:24:21.608Z,98654.97
2023-09-12T14:29:25.514Z,98581.47
2023-09-12T14:34:29.296Z,98644.94
2023-09-12T14:39:31.590Z,98619.56
2023-09-12T14:44:34.348Z,98621.16
2023-09-12T14:49:46.006Z,98647.81
2023-09-12T14:54:50.500Z,98619.50
2023-09-12T14:59:53.165Z,98625.94
2023-09-12T15:04:55.469Z,98610.25
2023-09-12T15:09:58.666Z,98615.94
2023-09-12T15:15:01.100Z,98625.63
2023-09-12T15:20:06.404Z,98562.84
2023-09-12T15:25:09.057Z,98578.34
2023-09-12T15:30:12.982Z,98558.91
2023-09-12T15:35:15.282Z,98617.75
2023-09-12T15:40:17.808Z,98627.44
2023-09-12T15:45:21.240Z,98613.56
2023-09-12T15:50:24.522Z,98569.00
2023-09-12T15:55:26.716Z,98592.97
2023-09-12T16:00:29.024Z,98613.94
2023-09-12T16:05:31.465Z,98544.53
2023-09-12T16:10:33.728Z,98598.19
2023-09-12T16:15:36.125Z,98630.66
2023-09-12T16:20:38.541Z,98589.72
2023-09-12T16:25:40.853Z,98495.44
2023-09-12T16:30:45.448Z,98498.88
2023-09-12T16:35:48.413Z,98548.16
2023-09-12T16:40:51.245Z,98575.78
2023-09-12T16:45:53.640Z,98506.56
2023-09-12T16:50:55.932Z,98513.69
2023-09-12T16:56:00.336Z,98505.25
2023-09-12T17:01:02.810Z,98507.81
2023-09-12T17:06:05.462Z,98549.53
2023-09-12T17:11:07.917Z,98553.91
2023-09-12T17:16:10.383Z,98596.09
2023-09-12T17:21:12.925Z,98551.09
2023-09-12T17:26:15.160Z,98578.16
2023-09-12T17:31:17.549Z,98553.13
2023-09-12T17:36:19.792Z,98609.25
2023-09-12T17:41:22.176Z,98636.88
2023-09-12T17:46:25.154Z,98630.91
2023-09-12T17:51:27.621Z,98635.22
2023-09-12T17:56:29.946Z,98587.72
2023-09-12T18:01:32.281Z,98626.09
2023-09-12T18:06:36.308Z,98626.22
2023-09-12T18:11:38.700Z,98627.41
2023-09-12T18:16:41.245Z,98595.59
2023-09-12T18:21:43.695Z,98672.63
2023-09-12T18:26:47.137Z,98678.19
2023-09-12T18:31:49.933Z,98637.97
2023-09-12T18:36:54.416Z,98663.19
2023-09-12T18:41:56.743Z,98657.06
2023-09-12T18:46:59.403Z,98713.69
2023-09-12T18:52:01.809Z,98706.47
2023-09-12T18:57:12.069Z,98707.13
2023-09-12T19:02:15.207Z,98704.66
2023-09-12T19:07:17.512Z,98707.44
2023-09-12T19:12:19.756Z,98761.09
2023-09-12T19:17:22.010Z,98751.56
2023-09-12T19:22:24.224Z,98742.34
2023-09-12T19:27:26.387Z,98747.09
2023-09-12T19:32:29.452Z,98739.25
2023-09-12T19:37:31.664Z,98772.78
2023-09-12T19:42:34.148Z,98712.56
2023-09-12T19:47:50.049Z,98758.94
2023-09-12T19:52:57.635Z,98791.25
2023-09-12T19:57:59.994Z,98778.75
2023-09-12T20:03:02.466Z,98740.97
2023-09-12T20:08:08.551Z,98827.25
2023-09-12T20:13:10.898Z,98772.63
2023-09-12T20:18:15.252Z,98790.72
2023-09-12T20:23:17.525Z,98760.13
2023-09-12T20:28:19.867Z,98800.78
2023-09-12T20:33:22.237Z,98755.03
2023-09-12T20:38:24.532Z,98831.03
2023-09-12T20:43:27.099Z,98762.00
2023-09-12T20:48:29.397Z,98858.84
2023-09-12T20:53:31.645Z,98881.78
2023-09-12T20:58:33.850Z,98891.91
2023-09-12T21:03:36.310Z,98915.22
2023-09-12T21:08:38.946Z,98901.91
2023-09-12T21:13:41.210Z,98893.94
2023-09-12T21:18:45.360Z,98861.66
2023-09-12T21:23:47.681Z,98864.78
2023-09-12T21:28:53.429Z,98903.00
2023-09-12T21:33:56.085Z,98953.19
2023-09-12T21:38:58.459Z,98901.13
2023-09-12T21:44:00.645Z,98891.13
2023-09-12T21:49:05.827Z,98907.06
2023-09-12T21:54:09.681Z,98967.31
2023-09-12T21:59:11.906Z,98901.19
2023-09-12T22:04:14.993Z,98910.06
2023-09-12T22:09:17.256Z,98936.16
2023-09-12T22:14:19.465Z,98855.31
2023-09-12T22:19:21.820Z,98907.47
2023-09-12T22:24:24.098Z,98874.97
2023-09-12T22:29:26.708Z,98939.81
2023-09-12T22:34:29.002Z,98926.72
2023-09-12T22:39:31.402Z,98932.13
2023-09-12T22:44:33.713Z,98910.75
2023-09-12T22:49:36.013Z,98916.09
2023-09-12T22:54:38.294Z,98898.75
2023-09-12T22:59:40.775Z,98874.56
2023-09-12T23:04:43.193Z,98939.88
2023-09-12T23:09:45.537Z,98936.75
2023-09-12T23:14:48.043Z,98886.81
2023-09-12T23:19:50.435Z,98866.22
2023-09-12T23:24:53.234Z,98869.34
2023-09-12T23:29:56.551Z,98893.59
2023-09-12T23:34:58.974Z,98911.00
2023-09-12T23:40:01.442Z,98854.63
2023-09-12T23:45:04.524Z,98866.94
2023-09-12T23:50:07.912Z,98922.50
2023-09-12T23:55:11.065Z,98915.09
